createdAt,value
2018-02-13T00:01:53.045Z,81.11
2018-02-13T00:04:21.169Z,81.47
2018-02-13T00:06:49.293Z,81.29
2018-02-13T00:09:17.406Z,81.00
2018-02-13T00:11:45.542Z,81.18
2018-02-13T00:14:13.647Z,80.76
2018-02-13T00:16:41.775Z,80.83
2018-02-13T00:19:09.883Z,80.92
2018-02-13T00:21:38.022Z,80.87
2018-02-13T00:24:06.270Z,80.95
2018-02-13T00:26:37.774Z,81.15
2018-02-13T00:29:05.910Z,80.91
2018-02-13T00:31:34.022Z,80.77
2018-02-13T00:34:02.193Z,80.88
2018-02-13T00:36:30.266Z,80.97
2018-02-13T00:38:58.429Z,81.44
2018-02-13T00:41:26.493Z,81.04
2018-02-13T00:43:54.609Z,80.60
2018-02-13T00:46:22.725Z,81.01
2018-02-13T00:48:50.828Z,81.58
2018-02-13T00:51:18.935Z,81.12
2018-02-13T00:53:47.047Z,81.21
2018-02-13T00:56:15.211Z,81.02
2018-02-13T00:58:43.328Z,81.26
2018-02-13T01:01:11.444Z,81.16
2018-02-13T01:03:39.565Z,81.78
2018-02-13T01:06:07.686Z,81.69
2018-02-13T01:08:35.789Z,82.17
2018-02-13T01:11:03.900Z,81.41
2018-02-13T01:13:32.099Z,81.58
2018-02-13T01:16:00.126Z,81.15
2018-02-13T01:18:28.223Z,81.25
2018-02-13T01:20:56.347Z,81.59
2018-02-13T01:23:24.458Z,81.89
2018-02-13T01:25:52.579Z,81.85
2018-02-13T01:28:20.702Z,81.14
2018-02-13T01:30:48.813Z,81.28
2018-02-13T01:33:16.919Z,80.80
2018-02-13T01:35:45.034Z,81.08
2018-02-13T01:38:13.171Z,81.39
2018-02-13T01:40:41.276Z,81.82
2018-02-13T01:43:09.384Z,81.81
2018-02-13T01:45:37.500Z,82.15
2018-02-13T01:48:05.618Z,81.98
2018-02-13T01:50:33.723Z,81.52
2018-02-13T01:53:01.858Z,81.84
2018-02-13T01:55:29.961Z,81.14
2018-02-13T01:57:58.086Z,81.34
2018-02-13T02:00:26.210Z,81.92
2018-02-13T02:02:54.336Z,81.23
2018-02-13T02:05:22.450Z,81.54
2018-02-13T02:07:50.560Z,81.45
2018-02-13T02:10:18.681Z,81.53
2018-02-13T02:12:46.818Z,81.38
2018-02-13T02:15:14.903Z,81.01
2018-02-13T02:17:43.029Z,80.78
2018-02-13T02:20:11.133Z,80.45
2018-02-13T02:22:39.247Z,80.86
2018-02-13T02:25:07.369Z,80.51
2018-02-13T02:27:35.480Z,80.79
2018-02-13T02:30:03.589Z,80.87
2018-02-13T02:32:31.714Z,80.36
2018-02-13T02:34:59.830Z,80.55
2018-02-13T02:37:27.930Z,80.00
2018-02-13T02:39:56.053Z,80.24
2018-02-13T02:42:24.303Z,79.92
2018-02-13T02:44:52.414Z,80.04
2018-02-13T02:47:20.510Z,80.08
2018-02-13T02:49:48.628Z,80.74
2018-02-13T02:52:16.731Z,80.21
2018-02-13T02:54:44.903Z,81.24
2018-02-13T02:57:13.110Z,79.91
2018-02-13T02:59:41.261Z,80.05
2018-02-13T03:02:09.369Z,80.56
2018-02-13T03:04:37.483Z,80.75
2018-02-13T03:07:05.603Z,80.34
2018-02-13T03:09:33.718Z,80.58
2018-02-13T03:12:01.818Z,80.27
2018-02-13T03:14:29.936Z,80.35
2018-02-13T03:16:58.044Z,80.09
2018-02-13T03:19:26.156Z,80.95
2018-02-13T03:21:54.254Z,80.29
2018-02-13T03:24:22.362Z,80.63
2018-02-13T03:26:50.480Z,80.33
2018-02-13T03:29:18.592Z,79.80
2018-02-13T03:31:46.687Z,79.69
2018-02-13T03:34:14.807Z,79.83
2018-02-13T03:36:42.906Z,79.43
2018-02-13T03:39:11.034Z,79.83
2018-02-13T03:41:39.159Z,80.02
2018-02-13T03:44:07.273Z,79.65
2018-02-13T03:46:35.375Z,80.26
2018-02-13T03:49:03.483Z,80.47
2018-02-13T03:51:31.619Z,80.49
2018-02-13T03:53:59.702Z,79.86
2018-02-13T03:56:27.828Z,80.35
2018-02-13T03:58:55.933Z,80.93
2018-02-13T04:01:24.030Z,81.19
2018-02-13T04:03:52.135Z,81.34
2018-02-13T04:06:20.234Z,81.31
2018-02-13T04:08:48.343Z,80.73
2018-02-13T04:11:16.452Z,81.23
2018-02-13T04:13:44.573Z,80.97
2018-02-13T04:16:12.662Z,81.10
2018-02-13T04:18:40.797Z,80.65
2018-02-13T04:21:08.914Z,80.53
2018-02-13T04:23:37.015Z,80.38
2018-02-13T04:26:05.138Z,81.13
2018-02-13T04:28:33.223Z,80.87
2018-02-13T04:31:01.348Z,80.94
2018-02-13T04:33:29.482Z,81.11
2018-02-13T04:35:57.567Z,80.81
2018-02-13T04:38:25.685Z,80.43
2018-02-13T04:40:53.802Z,80.73
2018-02-13T04:43:21.920Z,80.34
2018-02-13T04:45:50.029Z,81.22
2018-02-13T04:48:18.316Z,81.00
2018-02-13T04:50:46.429Z,81.21
2018-02-13T04:53:14.533Z,81.02
2018-02-13T04:55:42.646Z,81.24
2018-02-13T04:58:14.089Z,80.79
2018-02-13T05:00:42.196Z,80.93
2018-02-13T05:03:10.320Z,80.79
2018-02-13T05:05:38.414Z,81.34
2018-02-13T05:08:06.524Z,81.71
2018-02-13T05:10:34.625Z,81.57
2018-02-13T05:13:02.803Z,80.93
2018-02-13T05:15:30.907Z,80.72
2018-02-13T05:17:59.012Z,81.49
2018-02-13T05:20:27.128Z,81.50
2018-02-13T05:22:55.241Z,80.74
2018-02-13T05:25:23.365Z,80.68
2018-02-13T05:27:51.466Z,80.70
2018-02-13T05:30:19.597Z,80.56
2018-02-13T05:32:47.691Z,80.88
2018-02-13T05:35:15.816Z,80.46
2018-02-13T05:37:43.915Z,81.21
2018-02-13T05:40:12.029Z,80.56
2018-02-13T05:42:40.158Z,80.22
2018-02-13T05:45:08.256Z,80.86
2018-02-13T05:47:36.389Z,81.30
2018-02-13T05:50:04.497Z,81.21
2018-02-13T05:52:32.620Z,80.82
2018-02-13T05:55:00.727Z,81.21
2018-02-13T05:57:28.830Z,81.33
2018-02-13T05:59:56.966Z,82.72
2018-02-13T06:02:25.069Z,80.61
2018-02-13T06:04:53.193Z,80.78
2018-02-13T06:07:21.308Z,80.47
2018-02-13T06:09:49.415Z,80.23
2018-02-13T06:12:17.512Z,81.02
2018-02-13T06:14:45.642Z,80.99
2018-02-13T06:17:13.765Z,80.85
2018-02-13T06:19:41.877Z,80.73
2018-02-13T06:22:09.996Z,80.82
2018-02-13T06:24:38.105Z,81.00
2018-02-13T06:27:06.219Z,81.43
2018-02-13T06:29:34.315Z,80.91
2018-02-13T06:32:02.437Z,80.89
2018-02-13T06:34:30.557Z,81.27
2018-02-13T06:36:58.670Z,80.85
2018-02-13T06:39:26.776Z,80.80
2018-02-13T06:41:54.882Z,80.61
2018-02-13T06:44:22.991Z,80.67
2018-02-13T06:46:51.090Z,80.29
2018-02-13T06:49:19.202Z,81.07
2018-02-13T06:51:47.321Z,80.20
2018-02-13T06:54:15.453Z,80.34
2018-02-13T06:56:43.556Z,80.58
2018-02-13T06:59:11.675Z,81.30
2018-02-13T07:01:39.797Z,80.70
2018-02-13T07:04:07.932Z,80.39
2018-02-13T07:06:36.052Z,81.12
2018-02-13T07:09:04.204Z,81.05
2018-02-13T07:11:32.310Z,80.99
2018-02-13T07:14:00.431Z,81.29
2018-02-13T07:16:28.554Z,82.40
2018-02-13T07:18:56.677Z,80.03
2018-02-13T07:21:24.786Z,80.61
2018-02-13T07:23:52.955Z,80.75
2018-02-13T07:26:21.074Z,80.71
2018-02-13T07:28:49.180Z,80.74
2018-02-13T07:31:17.297Z,81.03
2018-02-13T07:33:45.413Z,80.66
2018-02-13T07:36:13.510Z,80.64
2018-02-13T07:38:41.640Z,80.44
2018-02-13T07:41:09.749Z,80.31
2018-02-13T07:43:37.842Z,80.21
2018-02-13T07:46:05.978Z,79.96
2018-02-13T07:48:34.104Z,79.40
2018-02-13T07:51:02.211Z,79.53
2018-02-13T07:53:30.333Z,79.16
2018-02-13T07:55:58.442Z,78.82
2018-02-13T07:58:26.592Z,78.72
2018-02-13T08:00:54.774Z,77.93
2018-02-13T08:03:23.002Z,77.58
2018-02-13T08:05:51.108Z,76.49
2018-02-13T08:08:19.285Z,76.43
2018-02-13T08:10:47.417Z,75.21
2018-02-13T08:13:15.533Z,75.21
2018-02-13T08:15:43.771Z,74.37
2018-02-13T08:18:11.885Z,74.30
2018-02-13T08:20:40.003Z,73.48
2018-02-13T08:23:08.134Z,74.39
2018-02-13T08:25:36.247Z,73.63
2018-02-13T08:28:04.383Z,73.11
2018-02-13T08:30:32.509Z,72.45
2018-02-13T08:33:00.630Z,72.29
2018-02-13T08:35:28.847Z,72.32
2018-02-13T08:37:56.969Z,71.15
2018-02-13T08:40:25.109Z,71.40
2018-02-13T08:42:53.234Z,69.12
2018-02-13T08:45:21.342Z,68.49
2018-02-13T08:47:49.451Z,68.64
2018-02-13T08:50:17.817Z,69.00
2018-02-13T08:52:45.937Z,67.94
2018-02-13T08:55:14.035Z,68.59
2018-02-13T08:57:42.167Z,68.27
2018-02-13T09:00:10.277Z,68.08
2018-02-13T09:02:38.401Z,68.40
2018-02-13T09:05:06.519Z,68.45
2018-02-13T09:07:34.641Z,69.16
2018-02-13T09:10:02.799Z,69.86
2018-02-13T09:12:30.999Z,70.80
2018-02-13T09:14:59.149Z,70.33
2018-02-13T09:17:27.295Z,70.08
2018-02-13T09:19:55.435Z,69.73
2018-02-13T09:22:23.560Z,68.80
2018-02-13T09:24:51.673Z,69.36
2018-02-13T09:27:19.794Z,69.27
2018-02-13T09:29:47.890Z,68.48
2018-02-13T09:32:16.020Z,68.60
2018-02-13T09:34:44.128Z,68.94
2018-02-13T09:37:12.234Z,67.80
2018-02-13T09:39:40.361Z,67.17
2018-02-13T09:42:08.490Z,67.78
2018-02-13T09:44:36.612Z,68.07
2018-02-13T09:47:04.729Z,68.16
2018-02-13T09:49:32.836Z,67.39
2018-02-13T09:52:00.949Z,67.40
2018-02-13T09:54:29.078Z,66.72
2018-02-13T09:56:57.192Z,67.20
2018-02-13T09:59:25.358Z,66.94
2018-02-13T10:01:53.429Z,66.82
2018-02-13T10:04:21.536Z,66.73
2018-02-13T10:06:49.643Z,65.73
2018-02-13T10:09:17.756Z,65.62
2018-02-13T10:11:45.882Z,64.88
2018-02-13T10:14:13.970Z,65.27
2018-02-13T10:16:42.094Z,65.74
2018-02-13T10:19:10.203Z,65.80
2018-02-13T10:21:38.360Z,65.17
2018-02-13T10:24:06.646Z,65.46
2018-02-13T10:26:34.783Z,65.14
2018-02-13T10:29:06.459Z,65.35
2018-02-13T10:31:34.571Z,64.86
2018-02-13T10:34:02.668Z,64.26
2018-02-13T10:36:30.775Z,64.70
2018-02-13T10:38:58.887Z,64.04
2018-02-13T10:41:27.040Z,63.86
2018-02-13T10:43:55.153Z,64.13
2018-02-13T10:46:23.246Z,64.22
2018-02-13T10:48:51.387Z,64.06
2018-02-13T10:51:19.468Z,64.17
2018-02-13T10:53:47.621Z,63.63
2018-02-13T10:56:15.712Z,63.52
2018-02-13T10:58:43.826Z,63.64
2018-02-13T11:01:17.442Z,62.66
2018-02-13T11:03:45.548Z,62.64
2018-02-13T11:06:13.655Z,61.65
2018-02-13T11:08:41.791Z,62.14
2018-02-13T11:11:09.917Z,61.62
2018-02-13T11:13:41.548Z,61.36
2018-02-13T11:16:09.822Z,61.06
2018-02-13T11:18:37.934Z,60.92
2018-02-13T11:21:06.064Z,61.19
2018-02-13T11:23:34.175Z,60.54
2018-02-13T11:26:02.328Z,60.51
2018-02-13T11:28:30.436Z,60.66
2018-02-13T11:30:58.542Z,60.01
2018-02-13T11:33:26.758Z,59.44
2018-02-13T11:35:54.852Z,60.08
2018-02-13T11:38:22.988Z,58.90
2018-02-13T11:40:51.115Z,58.80
2018-02-13T11:43:19.243Z,57.66
2018-02-13T11:45:47.352Z,58.46
2018-02-13T11:48:15.769Z,58.14
2018-02-13T11:50:43.940Z,57.95
2018-02-13T11:53:12.042Z,57.00
2018-02-13T11:55:40.160Z,56.41
2018-02-13T11:58:08.285Z,56.00
2018-02-13T12:00:37.374Z,55.81
2018-02-13T12:03:05.480Z,55.46
2018-02-13T12:05:33.596Z,56.19
2018-02-13T12:08:01.709Z,55.29
2018-02-13T12:10:29.829Z,54.80
2018-02-13T12:12:57.931Z,54.94
2018-02-13T12:15:26.069Z,53.87
2018-02-13T12:17:54.156Z,54.70
2018-02-13T12:20:22.271Z,54.58
2018-02-13T12:22:50.408Z,53.53
2018-02-13T12:25:30.293Z,53.79
2018-02-13T12:27:58.394Z,53.11
2018-02-13T12:30:26.492Z,53.26
2018-02-13T12:32:54.604Z,53.41
2018-02-13T12:35:22.712Z,52.38
2018-02-13T12:37:50.844Z,52.20
2018-02-13T12:40:18.945Z,51.94
2018-02-13T12:42:47.056Z,51.29
2018-02-13T12:45:15.153Z,51.01
2018-02-13T12:47:43.267Z,50.39
2018-02-13T12:50:11.398Z,50.72
2018-02-13T12:52:39.515Z,50.89
2018-02-13T12:55:07.638Z,50.03
2018-02-13T12:57:35.736Z,50.75
2018-02-13T13:00:03.938Z,49.76
2018-02-13T13:02:32.073Z,49.31
2018-02-13T13:05:00.181Z,49.60
2018-02-13T13:07:28.289Z,50.08
2018-02-13T13:09:56.421Z,51.17
2018-02-13T13:12:24.532Z,50.34
2018-02-13T13:14:52.662Z,49.73
2018-02-13T13:17:20.779Z,49.72
2018-02-13T13:19:48.906Z,49.50
2018-02-13T13:22:17.028Z,49.42
2018-02-13T13:24:45.135Z,49.30
2018-02-13T13:27:13.268Z,49.51
2018-02-13T13:29:41.391Z,49.12
2018-02-13T13:32:09.604Z,49.89
2018-02-13T13:34:37.720Z,49.55
2018-02-13T13:37:05.863Z,51.22
2018-02-13T13:39:33.946Z,49.91
2018-02-13T13:42:02.055Z,50.87
2018-02-13T13:44:30.158Z,50.78
2018-02-13T13:46:58.279Z,50.63
2018-02-13T13:49:26.402Z,50.36
2018-02-13T13:51:54.527Z,50.40
2018-02-13T13:54:22.626Z,50.27
2018-02-13T13:56:50.744Z,49.39
2018-02-13T13:59:18.862Z,49.91
2018-02-13T14:01:46.977Z,49.04
2018-02-13T14:04:15.067Z,50.14
2018-02-13T14:06:43.191Z,49.01
2018-02-13T14:09:11.305Z,48.79
2018-02-13T14:11:39.546Z,54.36
2018-02-13T14:14:07.669Z,48.86
2018-02-13T14:16:35.762Z,49.29
2018-02-13T14:19:03.879Z,49.48
2018-02-13T14:21:31.970Z,49.49
2018-02-13T14:24:00.083Z,49.37
2018-02-13T14:26:28.183Z,49.63
2018-02-13T14:28:56.298Z,48.78
2018-02-13T14:31:24.398Z,49.21
2018-02-13T14:33:52.512Z,49.79
2018-02-13T14:36:20.629Z,50.05
2018-02-13T14:38:48.739Z,49.78
2018-02-13T14:41:16.872Z,49.90
2018-02-13T14:43:44.970Z,50.41
2018-02-13T14:46:13.101Z,50.09
2018-02-13T14:48:41.227Z,50.70
2018-02-13T14:51:09.305Z,49.95
2018-02-13T14:53:37.439Z,49.83
2018-02-13T14:56:05.561Z,49.85
2018-02-13T14:58:33.717Z,49.92
2018-02-13T15:01:01.835Z,48.93
2018-02-13T15:03:29.973Z,49.49
2018-02-13T15:05:58.092Z,49.63
2018-02-13T15:08:26.219Z,49.71
2018-02-13T15:10:54.385Z,50.83
2018-02-13T15:13:22.491Z,49.85
2018-02-13T15:15:50.593Z,50.65
2018-02-13T15:18:24.718Z,50.92
2018-02-13T15:20:52.841Z,51.48
2018-02-13T15:23:20.957Z,52.14
2018-02-13T15:25:49.207Z,52.17
2018-02-13T15:28:17.341Z,52.67
2018-02-13T15:30:45.460Z,52.39
2018-02-13T15:33:13.602Z,52.54
2018-02-13T15:35:41.758Z,52.62
2018-02-13T15:38:09.862Z,52.31
2018-02-13T15:40:37.985Z,52.58
2018-02-13T15:43:06.097Z,52.58
2018-02-13T15:45:34.199Z,51.51
2018-02-13T15:48:02.325Z,51.87
2018-02-13T15:50:30.442Z,51.38
2018-02-13T15:52:58.647Z,52.26
2018-02-13T15:55:26.740Z,51.82
2018-02-13T15:57:54.865Z,51.87
2018-02-13T16:00:22.978Z,52.40
2018-02-13T16:02:51.126Z,50.65
2018-02-13T16:05:19.246Z,50.80
2018-02-13T16:07:47.347Z,51.45
2018-02-13T16:10:18.670Z,52.05
2018-02-13T16:12:46.779Z,52.26
2018-02-13T16:15:14.897Z,51.54
2018-02-13T16:17:43.024Z,50.84
2018-02-13T16:20:11.146Z,50.90
2018-02-13T16:22:39.338Z,50.83
2018-02-13T16:25:08.381Z,52.20
2018-02-13T16:27:36.490Z,51.83
2018-02-13T16:30:04.621Z,51.47
2018-02-13T16:32:32.748Z,51.32
2018-02-13T16:35:00.878Z,50.84
2018-02-13T16:37:28.974Z,51.55
2018-02-13T16:39:57.089Z,51.61
2018-02-13T16:42:25.201Z,51.50
2018-02-13T16:44:53.333Z,52.12
2018-02-13T16:47:21.462Z,52.28
2018-02-13T16:49:49.579Z,51.30
2018-02-13T16:52:17.684Z,52.57
2018-02-13T16:54:45.801Z,51.46
2018-02-13T16:57:13.914Z,52.13
2018-02-13T16:59:42.043Z,53.81
2018-02-13T17:02:10.138Z,53.50
2018-02-13T17:04:38.249Z,53.23
2018-02-13T17:07:06.383Z,53.62
2018-02-13T17:09:34.493Z,53.02
2018-02-13T17:12:02.606Z,53.57
2018-02-13T17:14:30.725Z,53.61
2018-02-13T17:16:58.858Z,54.08
2018-02-13T17:19:26.956Z,53.35
2018-02-13T17:21:55.066Z,54.12
2018-02-13T17:24:23.170Z,53.56
2018-02-13T17:26:51.267Z,54.80
2018-02-13T17:29:19.406Z,53.88
2018-02-13T17:31:47.501Z,53.85
2018-02-13T17:34:15.618Z,54.75
2018-02-13T17:36:43.734Z,55.18
2018-02-13T17:39:11.866Z,55.26
2018-02-13T17:41:40.421Z,53.46
2018-02-13T17:44:08.538Z,53.04
2018-02-13T17:46:36.661Z,54.77
2018-02-13T17:49:04.750Z,54.96
2018-02-13T17:51:32.933Z,55.83
2018-02-13T17:54:01.049Z,59.79
2018-02-13T17:56:29.165Z,55.27
2018-02-13T17:58:57.270Z,55.68
2018-02-13T18:01:25.408Z,55.30
2018-02-13T18:03:53.498Z,56.52
2018-02-13T18:06:21.596Z,56.20
2018-02-13T18:08:49.709Z,55.99
2018-02-13T18:11:17.823Z,55.95
2018-02-13T18:13:45.921Z,56.27
2018-02-13T18:16:14.489Z,56.61
2018-02-13T18:18:42.595Z,56.36
2018-02-13T18:21:10.704Z,57.50
2018-02-13T18:23:38.815Z,56.52
2018-02-13T18:26:06.933Z,57.49
2018-02-13T18:28:35.071Z,57.67
2018-02-13T18:31:03.168Z,56.54
2018-02-13T18:33:31.301Z,57.47
2018-02-13T18:35:59.422Z,57.87
2018-02-13T18:38:27.514Z,58.13
2018-02-13T18:40:55.640Z,58.23
2018-02-13T18:43:23.747Z,57.63
2018-02-13T18:45:51.841Z,57.21
2018-02-13T18:48:20.044Z,57.55
2018-02-13T18:50:48.177Z,58.01
2018-02-13T18:53:16.298Z,58.50
2018-02-13T18:55:44.404Z,58.58
2018-02-13T18:58:12.517Z,58.50
2018-02-13T19:00:40.618Z,59.58
2018-02-13T19:03:08.735Z,59.34
2018-02-13T19:05:36.830Z,58.49
2018-02-13T19:08:04.969Z,58.02
2018-02-13T19:10:33.073Z,58.85
2018-02-13T19:13:01.234Z,58.99
2018-02-13T19:15:29.342Z,59.09
2018-02-13T19:17:57.451Z,58.69
2018-02-13T19:20:25.561Z,58.95
2018-02-13T19:22:53.662Z,59.80
2018-02-13T19:25:21.971Z,59.17
2018-02-13T19:27:50.071Z,59.54
2018-02-13T19:30:18.174Z,59.08
2018-02-13T19:32:46.294Z,59.10
2018-02-13T19:35:14.403Z,58.53
2018-02-13T19:37:42.518Z,58.18
2018-02-13T19:40:10.621Z,59.39
2018-02-13T19:42:38.815Z,59.79
2018-02-13T19:45:06.934Z,58.90
2018-02-13T19:47:35.019Z,59.48
2018-02-13T19:50:03.129Z,60.39
2018-02-13T19:52:31.257Z,60.14
2018-02-13T19:54:59.374Z,60.32
2018-02-13T19:57:27.481Z,59.45
2018-02-13T19:59:55.615Z,60.35
2018-02-13T20:02:23.722Z,59.31
2018-02-13T20:04:51.826Z,59.73
2018-02-13T20:07:19.923Z,58.71
2018-02-13T20:09:48.032Z,60.06
2018-02-13T20:12:16.167Z,60.50
2018-02-13T20:14:44.273Z,60.11
2018-02-13T20:17:12.440Z,60.11
2018-02-13T20:19:40.557Z,59.35
2018-02-13T20:22:08.662Z,59.89
2018-02-13T20:24:36.950Z,59.45
2018-02-13T20:27:07.046Z,59.40
2018-02-13T20:29:35.145Z,59.68
2018-02-13T20:32:03.270Z,58.75
2018-02-13T20:34:31.363Z,59.84
2018-02-13T20:36:59.482Z,59.14
2018-02-13T20:39:27.583Z,60.28
2018-02-13T20:41:55.704Z,60.21
2018-02-13T20:44:23.822Z,60.43
2018-02-13T20:46:51.925Z,59.53
2018-02-13T20:49:20.023Z,60.11
2018-02-13T20:51:48.129Z,58.75
2018-02-13T20:54:16.283Z,59.99
2018-02-13T20:56:44.385Z,60.08
2018-02-13T20:59:12.533Z,60.57
2018-02-13T21:01:40.707Z,60.91
2018-02-13T21:04:08.817Z,60.51
2018-02-13T21:06:36.932Z,60.32
2018-02-13T21:09:05.078Z,60.18
2018-02-13T21:11:33.202Z,59.66
2018-02-13T21:14:01.304Z,60.33
2018-02-13T21:16:29.412Z,60.38
2018-02-13T21:18:57.536Z,61.74
2018-02-13T21:21:25.638Z,59.57
2018-02-13T21:23:53.751Z,60.11
2018-02-13T21:26:23.793Z,60.23
2018-02-13T21:28:52.014Z,60.51
2018-02-13T21:31:20.111Z,59.25
2018-02-13T21:33:48.220Z,60.11
2018-02-13T21:36:16.338Z,60.16
2018-02-13T21:38:44.475Z,60.23
2018-02-13T21:41:12.589Z,60.59
2018-02-13T21:43:44.479Z,60.47
2018-02-13T21:46:12.623Z,60.47
2018-02-13T21:48:40.727Z,59.72
2018-02-13T21:51:09.043Z,60.40
2018-02-13T21:53:37.161Z,60.40
2018-02-13T21:56:05.413Z,60.44
2018-02-13T21:58:33.710Z,59.91
2018-02-13T22:01:02.074Z,60.30
2018-02-13T22:03:30.295Z,59.70
2018-02-13T22:05:58.475Z,60.31
2018-02-13T22:08:26.585Z,59.67
2018-02-13T22:10:54.759Z,60.35
2018-02-13T22:13:22.876Z,60.38
2018-02-13T22:15:50.982Z,60.01
2018-02-13T22:18:19.099Z,60.67
2018-02-13T22:20:51.020Z,60.91
2018-02-13T22:23:19.137Z,61.04
2018-02-13T22:25:47.262Z,60.89
2018-02-13T22:28:15.373Z,61.37
2018-02-13T22:30:43.479Z,61.42
2018-02-13T22:33:12.489Z,61.03
2018-02-13T22:35:40.596Z,60.24
2018-02-13T22:38:08.692Z,60.00
2018-02-13T22:40:36.818Z,60.60
2018-02-13T22:43:04.938Z,59.66
2018-02-13T22:45:33.050Z,60.41
2018-02-13T22:48:01.222Z,60.38
2018-02-13T22:50:29.443Z,60.53
2018-02-13T22:52:57.535Z,60.78
2018-02-13T22:55:25.700Z,60.01
2018-02-13T22:57:53.787Z,60.26
2018-02-13T23:00:21.915Z,60.66
2018-02-13T23:02:50.054Z,60.37
2018-02-13T23:05:18.147Z,60.00
2018-02-13T23:07:46.275Z,60.36
2018-02-13T23:10:14.393Z,60.22
2018-02-13T23:12:42.496Z,60.11
2018-02-13T23:15:12.710Z,60.66
2018-02-13T23:17:40.838Z,60.71
2018-02-13T23:20:08.948Z,60.27
2018-02-13T23:22:37.055Z,60.54
2018-02-13T23:25:05.174Z,60.52
2018-02-13T23:27:33.290Z,60.93
2018-02-13T23:30:01.396Z,61.10
2018-02-13T23:32:29.533Z,61.21
2018-02-13T23:34:57.653Z,61.40
2018-02-13T23:37:25.789Z,61.33
2018-02-13T23:39:53.918Z,61.47
2018-02-13T23:42:22.066Z,61.77
2018-02-13T23:44:50.200Z,62.05
2018-02-13T23:47:18.370Z,61.63
2018-02-13T23:49:50.167Z,61.65
2018-02-13T23:52:18.303Z,61.50
2018-02-13T23:54:46.413Z,61.60
2018-02-13T23:57:14.525Z,61.80
2018-02-13T23:59:42.629Z,61.89
